Time;durP1;ratioP1;P1;durP2;ratioP2;P2;SDS_P1;SDS_P2;PMS_P1;PMS_P2;Temp;Humidity;BMP_temperature;BMP_pressure;BME280_temperature;BME280_humidity;BME280_pressure;Samples;Min_cycle;Max_cycle;Signal;HPM_P1;HPM_P2
2023/09/12 00:00:17;;;;;;;13.90;6.75;;;14.70;99.90;;;;;;4950741;28;44481;-67
2023/09/12 00:02:43;;;;;;;14.25;6.85;;;14.80;99.90;;;;;;4965222;28;49730;-67
2023/09/12 00:05:09;;;;;;;12.40;6.53;;;14.80;99.90;;;;;;4938230;28;49383;-67
2023/09/12 00:07:36;;;;;;;11.27;6.97;;;14.70;99.90;;;;;;4932894;28;49299;-67
2023/09/12 00:10:03;;;;;;;11.70;7.47;;;14.70;99.90;;;;;;4971290;28;49510;-67
2023/09/12 00:12:30;;;;;;;8.73;6.55;;;14.70;99.90;;;;;;4994721;28;49782;-67
2023/09/12 00:14:56;;;;;;;11.75;6.50;;;14.70;99.90;;;;;;4971629;28;73694;-67
2023/09/12 00:17:22;;;;;;;11.57;6.45;;;14.70;99.90;;;;;;4990505;28;50015;-67
2023/09/12 00:19:48;;;;;;;14.07;7.18;;;14.70;99.90;;;;;;4985939;28;49626;-67
2023/09/12 00:22:14;;;;;;;13.45;6.72;;;14.70;99.90;;;;;;4987769;28;49866;-67
2023/09/12 00:25:42;;;;;;;13.32;6.30;;;14.60;99.90;;;;;;4926085;28;55820;-67
2023/09/12 00:30:47;;;;;;;11.10;6.65;;;14.70;99.90;;;;;;5152469;27;20644;-65
2023/09/12 00:33:13;;;;;;;13.23;7.40;;;14.60;99.90;;;;;;5084401;27;1492939;-66
2023/09/12 00:35:39;;;;;;;10.13;6.22;;;14.60;99.90;;;;;;5040747;28;20048;-65
2023/09/12 00:38:06;;;;;;;13.20;6.93;;;14.50;99.90;;;;;;5061272;28;20094;-66
2023/09/12 00:40:32;;;;;;;10.80;6.47;;;14.50;99.90;;;;;;5020399;28;20447;-66
2023/09/12 00:42:59;;;;;;;15.23;7.18;;;14.60;99.90;;;;;;5036714;28;20070;-66
2023/09/12 00:45:25;;;;;;;9.93;6.88;;;14.60;99.90;;;;;;5005169;28;20035;-66
2023/09/12 00:47:52;;;;;;;13.00;7.07;;;14.70;99.90;;;;;;5033443;28;20059;-66
2023/09/12 00:50:22;;;;;;;15.65;7.60;;;14.70;99.90;;;;;;5050367;28;20159;-66
2023/09/12 00:52:48;;;;;;;12.10;6.15;;;14.70;99.90;;;;;;5073249;28;20079;-65
2023/09/12 00:55:15;;;;;;;12.95;6.65;;;14.60;99.90;;;;;;5064031;28;20052;-65
2023/09/12 00:57:41;;;;;;;13.63;6.65;;;14.60;99.90;;;;;;5023936;28;20095;-65
2023/09/12 01:00:12;;;;;;;12.07;6.85;;;14.50;99.90;;;;;;5027636;28;20053;-66
2023/09/12 01:02:43;;;;;;;12.43;6.63;;;14.60;99.90;;;;;;5015482;28;20085;-66
2023/09/12 01:05:11;;;;;;;14.75;7.25;;;14.50;99.90;;;;;;4999793;28;20073;-65
2023/09/12 01:07:38;;;;;;;11.68;7.05;;;14.50;99.90;;;;;;4968551;28;20108;-66
2023/09/12 01:10:05;;;;;;;12.27;7.38;;;14.50;99.90;;;;;;5001894;28;20054;-66
2023/09/12 01:12:31;;;;;;;17.48;7.68;;;14.50;99.90;;;;;;5012606;28;20045;-66
2023/09/12 01:14:57;;;;;;;12.70;6.40;;;14.50;99.90;;;;;;5012204;28;20053;-66
2023/09/12 01:17:24;;;;;;;14.23;7.05;;;14.50;99.90;;;;;;5006572;28;20077;-66
2023/09/12 01:19:51;;;;;;;15.43;7.25;;;14.50;99.90;;;;;;5003440;28;20046;-66
2023/09/12 01:22:48;;;;;;;17.45;6.63;;;14.50;99.90;;;;;;5010528;28;20148;-66
2023/09/12 01:25:14;;;;;;;13.13;7.45;;;14.50;99.90;;;;;;5017476;28;20041;-65
2023/09/12 01:27:50;;;;;;;10.75;6.60;;;14.50;99.90;;;;;;5038549;28;20441;-66
2023/09/12 01:30:22;;;;;;;11.05;6.43;;;14.40;99.90;;;;;;5033652;28;20064;-65
2023/09/12 01:32:48;;;;;;;14.70;6.93;;;14.50;99.90;;;;;;5035068;28;20111;-65
2023/09/12 01:35:15;;;;;;;11.60;6.70;;;14.50;99.90;;;;;;5001771;28;20061;-65
2023/09/12 01:37:41;;;;;;;11.55;6.90;;;14.40;99.90;;;;;;5033238;28;20482;-66
2023/09/12 01:40:07;;;;;;;13.52;6.78;;;14.40;99.90;;;;;;5027317;28;20040;-66
2023/09/12 01:42:38;;;;;;;11.38;6.43;;;14.30;99.90;;;;;;5011907;28;20618;-66
2023/09/12 01:45:05;;;;;;;12.13;5.95;;;14.30;99.90;;;;;;4972047;28;20084;-65
2023/09/12 01:47:34;;;;;;;10.93;7.25;;;14.30;99.90;;;;;;5029433;28;20107;-66
2023/09/12 01:50:02;;;;;;;11.07;6.45;;;14.40;99.90;;;;;;5040092;28;20056;-65
2023/09/12 01:52:28;;;;;;;22.05;8.57;;;14.30;99.90;;;;;;5060313;28;20452;-66
2023/09/12 01:54:55;;;;;;;22.58;8.50;;;14.30;99.90;;;;;;5023864;28;20063;-66
2023/09/12 01:57:22;;;;;;;14.15;7.57;;;14.30;99.90;;;;;;4987902;28;20123;-65
2023/09/12 01:59:49;;;;;;;12.40;6.95;;;14.30;99.90;;;;;;5015197;28;20090;-66
2023/09/12 02:02:16;;;;;;;20.70;8.45;;;14.40;99.90;;;;;;4983560;28;20050;-66
2023/09/12 02:05:07;;;;;;;16.90;7.25;;;14.40;99.90;;;;;;4951609;28;20058;-65
2023/09/12 02:07:38;;;;;;;14.02;7.10;;;14.40;99.90;;;;;;4950446;28;20044;-66
2023/09/12 02:10:07;;;;;;;;;;;14.30;99.90;;;;;;4962446;28;20078;-65
2023/09/12 02:12:33;;;;;;;13.65;7.00;;;14.20;99.90;;;;;;4965798;28;19929;-65
2023/09/12 02:14:59;;;;;;;16.33;7.75;;;14.20;99.90;;;;;;5009033;28;20049;-65
2023/09/12 02:17:25;;;;;;;14.65;6.72;;;14.10;99.90;;;;;;4953425;28;20039;-65
2023/09/12 02:19:51;;;;;;;16.70;7.00;;;14.00;99.90;;;;;;4963831;28;20062;-66
2023/09/12 02:22:17;;;;;;;20.13;7.50;;;14.00;99.90;;;;;;4976289;28;20039;-65
2023/09/12 02:24:43;;;;;;;14.90;7.50;;;13.90;99.90;;;;;;4974383;28;20492;-65
2023/09/12 02:27:09;;;;;;;13.77;6.32;;;13.80;99.90;;;;;;4917357;28;20032;-66
2023/09/12 02:29:35;;;;;;;17.10;6.95;;;13.80;99.90;;;;;;4893065;28;20138;-66
2023/09/12 02:32:01;;;;;;;15.43;6.95;;;13.70;99.90;;;;;;4941891;28;20038;-66
2023/09/12 02:34:27;;;;;;;13.68;7.20;;;13.70;99.90;;;;;;4966793;28;20492;-66
2023/09/12 02:36:53;;;;;;;13.68;7.10;;;13.70;99.90;;;;;;4934443;28;20039;-66
2023/09/12 02:39:19;;;;;;;11.98;6.60;;;13.70;99.90;;;;;;4987753;28;20146;-66
2023/09/12 02:41:45;;;;;;;18.75;7.97;;;13.70;99.90;;;;;;4997447;28;20037;-65
2023/09/12 02:44:11;;;;;;;11.68;6.50;;;13.80;99.90;;;;;;5010674;28;20041;-66
2023/09/12 02:46:37;;;;;;;14.45;6.95;;;13.70;99.90;;;;;;4963234;28;20042;-66
2023/09/12 02:49:03;;;;;;;12.50;6.88;;;13.70;99.90;;;;;;4957631;28;20049;-66
2023/09/12 02:51:30;;;;;;;17.75;6.47;;;13.70;99.90;;;;;;4973626;28;20050;-65
2023/09/12 02:53:56;;;;;;;10.68;6.45;;;13.70;99.90;;;;;;4958227;28;20117;-66
2023/09/12 02:56:22;;;;;;;11.07;7.18;;;13.70;99.90;;;;;;4895597;28;20056;-66
2023/09/12 02:58:49;;;;;;;11.30;6.70;;;13.70;99.90;;;;;;4906485;28;20075;-65
2023/09/12 03:01:16;;;;;;;11.63;6.50;;;13.60;99.90;;;;;;4905875;28;20258;-66
2023/09/12 03:03:46;;;;;;;12.68;6.55;;;13.70;99.90;;;;;;4927714;28;20050;-66
2023/09/12 03:06:14;;;;;;;16.58;7.30;;;13.60;99.90;;;;;;4931896;28;20203;-66
2023/09/12 03:08:41;;;;;;;12.10;6.70;;;13.60;99.90;;;;;;4936195;28;20039;-66
2023/09/12 03:11:07;;;;;;;17.90;7.70;;;13.60;99.90;;;;;;4945968;28;20404;-65
2023/09/12 03:13:34;;;;;;;11.98;6.40;;;13.50;99.90;;;;;;4945870;28;20207;-65
2023/09/12 03:16:00;;;;;;;11.02;6.28;;;13.50;99.90;;;;;;4937882;28;20106;-66
2023/09/12 03:18:26;;;;;;;12.35;6.25;;;13.60;99.90;;;;;;4910043;28;20078;-65
2023/09/12 03:20:53;;;;;;;9.07;6.43;;;13.50;99.90;;;;;;4924677;28;20576;-65
2023/09/12 03:23:20;;;;;;;10.30;6.15;;;13.50;99.90;;;;;;4948405;28;20038;-66
2023/09/12 03:25:46;;;;;;;13.23;6.32;;;13.40;99.90;;;;;;4957380;28;20172;-66
2023/09/12 03:28:13;;;;;;;9.45;6.28;;;13.40;99.90;;;;;;4941474;28;36573;-66
2023/09/12 03:30:39;;;;;;;13.07;6.53;;;13.40;99.90;;;;;;4932545;28;21573;-66
2023/09/12 03:33:06;;;;;;;12.73;5.70;;;13.40;99.90;;;;;;4963433;28;23105;-66
2023/09/12 03:35:33;;;;;;;13.20;6.40;;;13.40;99.90;;;;;;4950422;28;23597;-64
2023/09/12 03:38:01;;;;;;;13.65;6.28;;;13.40;99.90;;;;;;4919076;28;24396;-66
2023/09/12 03:40:31;;;;;;;10.77;6.15;;;13.40;99.90;;;;;;4948934;28;26710;-66
2023/09/12 03:42:58;;;;;;;14.18;6.47;;;13.40;99.90;;;;;;4938539;28;27083;-66
2023/09/12 03:45:25;;;;;;;10.07;6.32;;;13.40;99.90;;;;;;4954302;28;29683;-65
2023/09/12 03:47:52;;;;;;;11.82;6.35;;;13.40;99.90;;;;;;4956589;28;25467;-66
2023/09/12 03:50:18;;;;;;;8.80;6.18;;;13.30;99.90;;;;;;4932314;28;30228;-66
2023/09/12 03:52:44;;;;;;;11.98;6.30;;;13.20;99.90;;;;;;4988217;28;31336;-66
2023/09/12 03:55:10;;;;;;;13.45;6.10;;;13.20;99.90;;;;;;4997041;28;32359;-65
2023/09/12 03:57:36;;;;;;;11.00;5.97;;;13.20;99.90;;;;;;4958356;28;33098;-65
2023/09/12 04:00:05;;;;;;;12.38;6.18;;;13.10;99.90;;;;;;4952375;28;35040;-65
2023/09/12 04:02:39;;;;;;;12.20;6.30;;;13.10;99.90;;;;;;4966167;28;35540;-66
2023/09/12 04:05:06;;;;;;;8.57;5.97;;;13.20;99.90;;;;;;4950899;28;36381;-66
2023/09/12 04:07:32;;;;;;;13.10;6.25;;;13.10;99.90;;;;;;4964755;28;38345;-66
2023/09/12 04:09:58;;;;;;;15.10;6.78;;;13.10;99.90;;;;;;4940306;28;39210;-66
2023/09/12 04:12:24;;;;;;;18.15;6.90;;;13.10;99.90;;;;;;4960039;28;39701;-66
2023/09/12 04:14:54;;;;;;;14.80;7.05;;;13.10;99.90;;;;;;4938443;28;41213;-66
2023/09/12 04:17:21;;;;;;;17.17;7.30;;;13.00;99.90;;;;;;4929823;28;42132;-66
2023/09/12 04:19:47;;;;;;;12.90;6.40;;;13.10;99.90;;;;;;4918053;28;43501;-66
2023/09/12 04:22:13;;;;;;;12.93;6.10;;;13.10;99.90;;;;;;4915344;28;45320;-66
2023/09/12 04:24:40;;;;;;;20.55;7.13;;;13.10;99.90;;;;;;4906644;28;46020;-65
2023/09/12 04:27:06;;;;;;;23.02;7.82;;;13.10;99.90;;;;;;4891643;28;47286;-66
2023/09/12 04:29:35;;;;;;;18.58;7.82;;;13.10;99.90;;;;;;4908936;28;49193;-65
2023/09/12 04:32:05;;;;;;;16.65;6.97;;;13.10;99.90;;;;;;4866579;28;49363;-66
2023/09/12 04:34:31;;;;;;;24.55;7.90;;;13.10;99.90;;;;;;4857974;28;49056;-66
2023/09/12 04:36:58;;;;;;;19.83;7.95;;;13.10;99.90;;;;;;4857173;28;49894;-66
2023/09/12 04:39:25;;;;;;;15.48;7.18;;;13.10;99.90;;;;;;4868931;28;49869;-65
2023/09/12 04:41:51;;;;;;;13.63;6.63;;;13.10;99.90;;;;;;4880903;28;62370;-66
2023/09/12 04:44:17;;;;;;;15.32;6.85;;;13.10;99.90;;;;;;4858407;28;50315;-66
2023/09/12 04:46:43;;;;;;;14.95;6.53;;;13.10;99.90;;;;;;4912250;28;50385;-65
2023/09/12 04:49:09;;;;;;;11.93;6.45;;;13.10;99.90;;;;;;4905288;28;49249;-66
2023/09/12 04:51:35;;;;;;;17.92;6.60;;;13.20;99.90;;;;;;4894675;28;49552;-66
2023/09/12 04:54:02;;;;;;;15.25;6.65;;;13.30;99.90;;;;;;4860053;28;67046;-65
2023/09/12 04:56:28;;;;;;;11.00;6.60;;;13.40;99.90;;;;;;4858011;28;69185;-65
2023/09/12 04:58:54;;;;;;;11.32;6.40;;;13.50;99.90;;;;;;4863359;28;70889;-66
2023/09/12 05:01:20;;;;;;;13.98;7.20;;;13.60;99.90;;;;;;4859929;28;70889;-65
2023/09/12 05:03:46;;;;;;;14.50;7.35;;;13.60;99.90;;;;;;4922628;28;72658;-66
2023/09/12 05:08:37;;;;;;;17.38;7.22;;;13.80;99.90;;;;;;4922553;28;54260;-66
2023/09/12 05:11:04;;;;;;;15.85;7.07;;;13.90;99.90;;;;;;4904446;28;30846;-66
2023/09/12 05:13:30;;;;;;;21.77;7.93;;;14.00;99.90;;;;;;4920980;28;49490;-66
2023/09/12 05:15:57;;;;;;;15.88;7.00;;;14.10;99.90;;;;;;4906814;28;25019;-65
2023/09/12 05:18:23;;;;;;;20.98;7.93;;;14.20;99.90;;;;;;4894840;28;49366;-66
2023/09/12 05:20:50;;;;;;;22.92;8.70;;;14.40;99.90;;;;;;4881870;28;57317;-66
2023/09/12 05:23:16;;;;;;;17.65;7.72;;;14.60;99.90;;;;;;4867164;28;35904;-65
2023/09/12 05:25:42;;;;;;;17.98;8.05;;;14.70;99.90;;;;;;4847867;28;35880;-66
2023/09/12 05:28:15;;;;;;;15.82;7.18;;;14.90;99.90;;;;;;4899476;28;37016;-68
2023/09/12 05:30:43;;;;;;;24.67;7.75;;;15.10;99.90;;;;;;4842230;28;48158;-68
2023/09/12 05:33:09;;;;;;;29.25;8.88;;;15.20;99.90;;;;;;4865553;28;48689;-66
2023/09/12 05:35:37;;;;;;;30.73;8.98;;;15.40;99.90;;;;;;4896883;28;48805;-68
2023/09/12 05:38:03;;;;;;;22.90;8.90;;;15.50;99.90;;;;;;4893019;28;49114;-68
2023/09/12 05:40:29;;;;;;;29.42;9.82;;;15.70;99.90;;;;;;4876806;28;49144;-68
2023/09/12 05:42:56;;;;;;;18.27;8.80;;;15.90;99.90;;;;;;4890535;28;49704;-68
2023/09/12 05:45:23;;;;;;;21.30;8.70;;;15.90;99.90;;;;;;4895065;28;73880;-68
2023/09/12 05:47:53;;;;;;;31.73;9.93;;;15.90;99.90;;;;;;4909105;28;65082;-68
2023/09/12 05:50:19;;;;;;;26.35;9.23;;;16.10;99.90;;;;;;4921973;28;49002;-68
2023/09/12 05:52:46;;;;;;;24.20;8.40;;;16.30;99.90;;;;;;4885517;28;49529;-66
2023/09/12 05:55:13;;;;;;;28.90;9.85;;;16.50;99.90;;;;;;4800236;28;49812;-66
2023/09/12 05:57:39;;;;;;;24.95;9.20;;;16.60;99.90;;;;;;4790232;28;49360;-68
2023/09/12 06:00:10;;;;;;;33.13;10.27;;;16.80;99.90;;;;;;4817650;28;74562;-68
2023/09/12 06:02:40;;;;;;;24.13;7.90;;;16.90;99.90;;;;;;4832607;29;47375;-69
2023/09/12 06:07:46;;;;;;;25.58;10.45;;;17.10;99.90;;;;;;5152087;27;20142;-66
2023/09/12 06:10:13;;;;;;;36.97;16.10;;;17.20;99.90;;;;;;5098515;27;20040;-66
2023/09/12 06:12:39;;;;;;;42.35;13.98;;;17.40;99.90;;;;;;5040664;28;1455461;-66
2023/09/12 06:15:05;;;;;;;38.38;14.90;;;17.80;99.90;;;;;;5071845;28;20044;-66
2023/09/12 06:17:31;;;;;;;25.45;11.40;;;18.00;99.90;;;;;;5067835;28;20045;-66
2023/09/12 06:19:57;;;;;;;45.53;13.85;;;18.40;99.90;;;;;;5069662;28;20078;-66
2023/09/12 06:22:23;;;;;;;42.60;12.52;;;18.90;99.30;;;;;;5095033;28;20570;-66
2023/09/12 06:24:51;;;;;;;32.22;9.15;;;19.20;99.10;;;;;;5105267;28;20121;-66
2023/09/12 06:27:18;;;;;;;26.45;9.40;;;19.50;97.90;;;;;;5091751;28;20089;-66
2023/09/12 06:29:48;;;;;;;28.02;8.73;;;19.80;96.30;;;;;;5106870;28;20047;-66
2023/09/12 06:32:15;;;;;;;33.08;9.27;;;19.80;94.30;;;;;;5101428;28;20048;-66
2023/09/12 06:34:41;;;;;;;23.77;8.70;;;20.30;93.30;;;;;;5102597;28;20036;-66
2023/09/12 06:37:08;;;;;;;33.70;9.35;;;20.30;92.40;;;;;;5098968;28;20497;-65
2023/09/12 06:39:34;;;;;;;18.83;8.27;;;20.50;91.90;;;;;;5083212;28;20051;-66
2023/09/12 06:42:00;;;;;;;29.55;9.23;;;20.60;92.30;;;;;;5096734;28;20341;-66
2023/09/12 06:44:26;;;;;;;29.20;7.88;;;20.40;91.10;;;;;;5095493;28;20039;-67
2023/09/12 06:46:52;;;;;;;23.15;7.85;;;20.40;91.20;;;;;;5099703;28;20512;-66
2023/09/12 06:49:18;;;;;;;31.98;8.80;;;20.80;91.20;;;;;;5096254;28;20039;-67
2023/09/12 06:51:44;;;;;;;23.75;7.55;;;21.30;88.80;;;;;;5093793;28;20123;-66
2023/09/12 06:54:10;;;;;;;27.70;9.65;;;21.50;86.30;;;;;;5076359;28;20033;-66
2023/09/12 06:56:37;;;;;;;24.63;8.32;;;22.30;86.70;;;;;;5060231;28;20186;-67
2023/09/12 06:59:05;;;;;;;17.65;7.82;;;22.90;82.00;;;;;;5059188;28;20065;-67
2023/09/12 07:01:31;;;;;;;26.45;8.90;;;23.30;78.50;;;;;;5058541;28;20064;-67
2023/09/12 07:03:57;;;;;;;26.33;9.00;;;23.70;74.70;;;;;;5094312;28;20378;-66
2023/09/12 07:06:24;;;;;;;22.30;8.15;;;23.70;73.70;;;;;;5087980;28;20056;-67
2023/09/12 07:08:51;;;;;;;26.02;7.68;;;23.70;70.90;;;;;;5089062;28;20050;-67
2023/09/12 07:11:19;;;;;;;30.17;8.43;;;23.70;69.50;;;;;;5098025;28;20043;-67
2023/09/12 07:13:45;;;;;;;32.58;9.63;;;24.30;68.70;;;;;;5090390;28;20378;-67
2023/09/12 07:16:12;;;;;;;21.55;7.47;;;24.90;66.80;;;;;;5094836;28;20547;-66
2023/09/12 07:18:38;;;;;;;22.38;6.95;;;25.50;64.20;;;;;;5066000;28;20218;-67
2023/09/12 07:21:06;;;;;;;22.05;7.15;;;25.80;59.60;;;;;;5063290;28;20055;-67
2023/09/12 07:23:32;;;;;;;23.45;8.23;;;25.90;59.40;;;;;;5041754;28;20059;-67
2023/09/12 07:25:59;;;;;;;24.52;8.43;;;26.00;56.80;;;;;;5020910;28;20124;-67
2023/09/12 07:28:32;;;;;;;20.10;7.30;;;26.60;58.10;;;;;;5039849;28;20052;-67
2023/09/12 07:30:58;;;;;;;21.00;6.95;;;26.60;55.00;;;;;;5026886;28;20041;-67
2023/09/12 07:33:24;;;;;;;19.35;6.30;;;27.10;52.80;;;;;;5055524;28;20057;-67
2023/09/12 07:35:53;;;;;;;21.50;8.07;;;27.30;53.50;;;;;;5054386;28;20064;-67
2023/09/12 07:38:21;;;;;;;19.02;6.20;;;27.70;50.70;;;;;;5056040;28;20433;-68
2023/09/12 07:40:47;;;;;;;26.10;6.80;;;28.40;50.90;;;;;;5045302;28;20928;-66
2023/09/12 07:43:13;;;;;;;21.08;7.32;;;28.20;47.60;;;;;;5037244;28;21691;-69
2023/09/12 07:45:39;;;;;;;23.98;7.43;;;28.40;47.10;;;;;;5041109;28;22154;-68
2023/09/12 07:48:11;;;;;;;31.73;11.38;;;28.80;43.80;;;;;;5052103;28;23196;-66
2023/09/12 07:50:38;;;;;;;28.58;13.75;;;28.50;46.20;;;;;;5043657;28;23720;-66
2023/09/12 07:53:05;;;;;;;27.67;11.02;;;28.80;46.20;;;;;;5045234;28;24611;-66
2023/09/12 07:55:35;;;;;;;19.60;7.65;;;29.00;44.90;;;;;;5072723;28;25692;-66
2023/09/12 07:58:02;;;;;;;25.35;9.20;;;29.40;45.60;;;;;;5065179;28;26597;-66
2023/09/12 08:00:29;;;;;;;21.92;8.43;;;29.70;47.10;;;;;;5065731;28;26677;-66
2023/09/12 08:02:55;;;;;;;18.10;7.63;;;29.40;47.40;;;;;;5049652;28;26349;-66
2023/09/12 08:05:21;;;;;;;19.15;7.57;;;30.20;46.10;;;;;;5038464;28;27607;-66
2023/09/12 08:07:47;;;;;;;21.00;7.43;;;30.00;44.00;;;;;;5050240;28;28893;-66
2023/09/12 08:10:13;;;;;;;19.75;7.25;;;29.80;45.00;;;;;;5067730;28;24686;-67
2023/09/12 08:12:41;;;;;;;18.80;7.03;;;30.20;43.50;;;;;;5062377;28;29566;-67
2023/09/12 08:15:08;;;;;;;14.82;6.28;;;30.30;41.00;;;;;;5066837;28;30451;-67
2023/09/12 08:17:34;;;;;;;16.83;6.30;;;29.70;40.00;;;;;;5059668;28;25155;-66
2023/09/12 08:20:00;;;;;;;14.98;6.05;;;30.20;37.40;;;;;;5064381;28;31249;-67
2023/09/12 08:22:26;;;;;;;18.58;6.75;;;30.00;40.70;;;;;;5061831;28;32059;-67
2023/09/12 08:24:52;;;;;;;13.18;6.13;;;30.80;40.30;;;;;;5054517;28;32782;-67
2023/09/12 08:27:18;;;;;;;14.00;6.18;;;31.40;35.70;;;;;;5046767;28;33756;-66
2023/09/12 08:29:46;;;;;;;19.17;6.63;;;32.00;37.20;;;;;;5030575;28;21885;-67
2023/09/12 08:32:12;;;;;;;19.10;5.70;;;32.10;34.80;;;;;;5022546;28;23552;-67
2023/09/12 08:34:39;;;;;;;21.48;6.43;;;32.50;35.90;;;;;;5016705;28;31843;-67
2023/09/12 08:37:06;;;;;;;15.32;5.55;;;32.50;33.90;;;;;;5012549;28;32969;-67
2023/09/12 08:39:45;;;;;;;16.08;5.85;;;32.60;33.00;;;;;;5014187;28;35124;-67
2023/09/12 08:42:16;;;;;;;15.38;6.10;;;32.80;32.60;;;;;;5007590;28;36975;-67
2023/09/12 08:44:43;;;;;;;19.63;6.03;;;33.10;32.10;;;;;;5010099;28;38039;-67
2023/09/12 08:47:10;;;;;;;13.20;5.85;;;32.90;29.90;;;;;;5002692;28;39417;-67
2023/09/12 08:49:37;;;;;;;18.67;5.90;;;32.50;31.40;;;;;;5012304;28;41331;-67
2023/09/12 08:52:07;;;;;;;24.40;7.82;;;32.90;30.40;;;;;;5015975;28;42049;-67
2023/09/12 08:54:34;;;;;;;15.38;5.55;;;33.20;30.60;;;;;;4993930;28;42686;-67
2023/09/12 08:57:05;;;;;;;16.23;5.97;;;33.30;30.50;;;;;;4998380;28;44175;-68
2023/09/12 08:59:34;;;;;;;16.65;6.47;;;33.20;29.70;;;;;;4998044;28;45323;-68
2023/09/12 09:02:12;;;;;;;16.30;6.63;;;33.50;29.70;;;;;;4996171;28;46705;-67
2023/09/12 09:04:40;;;;;;;27.25;7.38;;;33.50;29.40;;;;;;5010266;28;48997;-67
2023/09/12 09:07:08;;;;;;;28.85;7.07;;;33.00;29.80;;;;;;5016461;28;25015;-67
2023/09/12 09:09:35;;;;;;;16.88;7.40;;;32.90;29.60;;;;;;5005268;28;57134;-67
2023/09/12 09:12:01;;;;;;;11.90;5.13;;;32.70;29.60;;;;;;5011039;28;59163;-67
2023/09/12 09:14:30;;;;;;;15.25;6.85;;;32.80;29.50;;;;;;5008502;28;49489;-67
2023/09/12 09:16:56;;;;;;;15.45;5.47;;;33.00;29.30;;;;;;4994732;28;62640;-67
2023/09/12 09:19:22;;;;;;;17.13;6.30;;;33.60;29.10;;;;;;5031016;28;62782;-67
2023/09/12 09:21:48;;;;;;;19.42;6.45;;;33.90;27.70;;;;;;5008443;28;49307;-67
2023/09/12 09:24:17;;;;;;;18.38;7.25;;;34.10;29.30;;;;;;5000714;28;49146;-67
2023/09/12 09:26:49;;;;;;;23.77;7.27;;;34.20;28.80;;;;;;5020090;28;48842;-67
2023/09/12 09:29:20;;;;;;;15.00;6.43;;;33.80;28.20;;;;;;5024865;28;50010;-67
2023/09/12 09:31:51;;;;;;;23.08;7.47;;;34.10;28.50;;;;;;5011045;28;50189;-67
2023/09/12 09:34:21;;;;;;;21.60;6.60;;;34.10;27.70;;;;;;4997620;28;49995;-67
2023/09/12 09:36:52;;;;;;;16.83;6.38;;;34.30;26.70;;;;;;4985267;28;50658;-67
2023/09/12 09:39:19;;;;;;;17.20;6.05;;;34.00;26.50;;;;;;4992687;28;49735;-67
2023/09/12 09:41:49;;;;;;;19.95;5.70;;;34.00;26.70;;;;;;4999270;28;49303;-67
2023/09/12 09:44:16;;;;;;;16.55;5.68;;;33.90;26.80;;;;;;5000606;28;50468;-67
2023/09/12 09:46:46;;;;;;;13.88;5.25;;;33.20;26.40;;;;;;5012619;28;50683;-67
2023/09/12 09:49:15;;;;;;;;;;;33.40;27.30;;;;;;4994113;28;50240;-67
2023/09/12 09:51:44;;;;;;;16.55;5.97;;;34.10;26.80;;;;;;4990449;28;50727;-68
2023/09/12 09:54:12;;;;;;;19.42;5.65;;;34.40;25.30;;;;;;4995937;28;74832;-68
2023/09/12 09:56:49;;;;;;;18.40;5.78;;;33.50;26.00;;;;;;4995880;28;49864;-67
2023/09/12 09:59:22;;;;;;;8.90;4.82;;;34.00;27.40;;;;;;4985477;28;49609;-67
2023/09/12 10:01:51;;;;;;;11.40;5.10;;;34.50;27.30;;;;;;5012007;28;24990;-67
2023/09/12 10:04:18;;;;;;;15.05;6.40;;;34.90;26.50;;;;;;5016896;28;49239;-67
2023/09/12 10:06:45;;;;;;;18.77;6.32;;;35.20;28.00;;;;;;4972548;28;35649;-67
2023/09/12 10:09:13;;;;;;;8.98;5.65;;;35.50;26.50;;;;;;4972234;28;35803;-67
2023/09/12 10:11:41;;;;;;;14.20;6.25;;;35.40;24.50;;;;;;4977343;28;49071;-67
2023/09/12 10:14:07;;;;;;;11.15;5.75;;;35.40;25.50;;;;;;4966734;28;36667;-67
2023/09/12 10:16:36;;;;;;;12.20;6.38;;;35.30;25.60;;;;;;4996417;28;37153;-67
2023/09/12 10:19:32;;;;;;;14.38;7.32;;;35.50;24.30;;;;;;5017706;28;36228;-67
2023/09/12 10:22:17;;;;;;;16.00;8.40;;;35.60;24.40;;;;;;4978857;28;37885;-67
2023/09/12 10:24:45;;;;;;;18.05;8.60;;;35.60;24.40;;;;;;4967218;28;62932;-67
2023/09/12 10:27:13;;;;;;;18.90;8.85;;;36.10;24.80;;;;;;4989874;28;24724;-67
2023/09/12 10:29:40;;;;;;;16.65;8.65;;;36.00;23.50;;;;;;4984419;28;40369;-67
2023/09/12 10:32:06;;;;;;;25.90;10.00;;;36.10;24.20;;;;;;4977408;28;49400;-68
2023/09/12 10:34:32;;;;;;;20.58;10.30;;;36.00;24.40;;;;;;4977669;28;24992;-67
2023/09/12 10:37:00;;;;;;;21.67;10.23;;;36.70;24.10;;;;;;4961362;28;24787;-68
2023/09/12 10:39:28;;;;;;;25.40;11.02;;;36.80;23.60;;;;;;4977673;28;64819;-68
2023/09/12 10:41:55;;;;;;;22.58;11.52;;;36.70;23.50;;;;;;4961205;28;24882;-68
2023/09/12 10:44:23;;;;;;;22.17;11.23;;;37.20;23.00;;;;;;4958296;28;49767;-68
2023/09/12 10:46:50;;;;;;;29.23;11.50;;;37.30;22.60;;;;;;4974204;28;49918;-68
2023/09/12 10:49:18;;;;;;;25.40;11.40;;;37.30;22.50;;;;;;4950051;28;24793;-68
2023/09/12 10:51:47;;;;;;;29.15;10.68;;;37.40;21.50;;;;;;4892610;28;44484;-68
2023/09/12 10:54:15;;;;;;;30.92;11.50;;;37.20;23.00;;;;;;4921899;28;24613;-68
2023/09/12 10:56:42;;;;;;;24.05;10.60;;;37.70;23.00;;;;;;4918254;28;24998;-68
2023/09/12 10:59:13;;;;;;;21.98;9.23;;;37.40;22.50;;;;;;4911037;28;25023;-69
2023/09/12 11:01:46;;;;;;;16.70;8.23;;;36.60;23.30;;;;;;4893535;28;49156;-68
2023/09/12 11:04:18;;;;;;;18.60;7.32;;;36.90;22.20;;;;;;4900794;28;49174;-68
2023/09/12 11:06:47;;;;;;;17.38;7.35;;;37.20;22.50;;;;;;4891291;28;49431;-68
2023/09/12 11:09:18;;;;;;;16.27;7.13;;;37.10;22.50;;;;;;4878214;28;49560;-66
2023/09/12 11:11:46;;;;;;;11.60;6.68;;;37.00;21.90;;;;;;4936987;28;49514;-68
2023/09/12 11:14:13;;;;;;;14.63;7.63;;;35.90;21.50;;;;;;4928010;28;48215;-68
2023/09/12 11:16:39;;;;;;;23.27;8.32;;;35.20;22.90;;;;;;4963082;28;49217;-68
2023/09/12 11:19:19;;;;;;;19.88;7.90;;;35.30;23.40;;;;;;4987094;28;49666;-66
2023/09/12 11:21:49;;;;;;;26.20;8.65;;;36.20;23.20;;;;;;4938363;28;48747;-68
2023/09/12 11:24:16;;;;;;;20.58;8.23;;;36.00;22.40;;;;;;4943322;28;49627;-68
2023/09/12 11:27:07;;;;;;;18.48;7.88;;;36.20;23.20;;;;;;4919666;28;48733;-68
2023/09/12 11:29:38;;;;;;;14.65;7.05;;;36.90;23.20;;;;;;4944672;28;48489;-67
2023/09/12 11:34:44;;;;;;;18.15;7.18;;;37.10;23.10;;;;;;5152576;27;20662;-68
2023/09/12 11:37:22;;;;;;;14.98;6.95;;;37.50;21.80;;;;;;5122533;27;20093;-68
2023/09/12 11:42:25;;;;;;;12.65;7.10;;;37.60;22.10;;;;;;5152193;27;20374;-67
2023/09/12 11:44:52;;;;;;;19.45;7.70;;;38.30;22.10;;;;;;5128852;27;20038;-68
2023/09/12 11:47:18;;;;;;;19.00;7.80;;;38.00;21.40;;;;;;5043916;27;1468342;-68
2023/09/12 11:49:44;;;;;;;12.57;6.28;;;36.80;22.40;;;;;;5045656;28;20174;-66
2023/09/12 11:52:16;;;;;;;13.00;7.15;;;37.50;21.70;;;;;;5069347;27;20387;-67
2023/09/12 11:54:43;;;;;;;15.57;6.88;;;37.70;21.90;;;;;;5059247;28;20043;-68
2023/09/12 11:57:12;;;;;;;13.90;6.90;;;37.60;22.80;;;;;;5066045;28;20052;-67
2023/09/12 11:59:40;;;;;;;21.00;6.95;;;38.00;21.80;;;;;;5050802;28;20041;-67
2023/09/12 12:02:10;;;;;;;13.57;6.53;;;37.50;21.90;;;;;;5064129;28;20075;-68
2023/09/12 12:04:37;;;;;;;13.43;7.28;;;37.70;22.20;;;;;;5087157;28;20032;-68
2023/09/12 12:07:04;;;;;;;18.20;8.07;;;37.90;21.70;;;;;;5082427;28;20397;-68
2023/09/12 12:09:30;;;;;;;16.20;7.45;;;37.80;22.70;;;;;;5086115;28;20047;-68
2023/09/12 12:12:00;;;;;;;16.75;7.68;;;37.70;21.90;;;;;;5078177;28;20051;-68
2023/09/12 12:14:26;;;;;;;13.10;7.22;;;36.10;23.70;;;;;;5083454;28;20044;-67
2023/09/12 12:16:52;;;;;;;10.18;6.28;;;36.90;24.30;;;;;;5085171;28;20044;-67
2023/09/12 12:19:18;;;;;;;13.43;7.43;;;37.30;23.00;;;;;;5084294;28;20487;-67
2023/09/12 12:21:45;;;;;;;16.27;7.78;;;37.00;23.20;;;;;;5084813;28;20055;-68
2023/09/12 12:24:13;;;;;;;20.25;7.93;;;37.00;22.90;;;;;;5058934;28;20133;-68
2023/09/12 12:26:43;;;;;;;12.75;6.68;;;36.30;22.70;;;;;;5056298;28;20068;-68
2023/09/12 12:29:10;;;;;;;;;;;35.80;23.70;;;;;;5062786;28;20081;-68
2023/09/12 12:31:39;;;;;;;24.05;7.82;;;35.80;23.40;;;;;;5049726;28;19912;-67
2023/09/12 12:34:06;;;;;;;15.15;6.97;;;35.80;23.50;;;;;;5080592;28;20044;-68
2023/09/12 12:36:32;;;;;;;8.27;5.80;;;36.70;21.30;;;;;;5065824;28;20475;-68
2023/09/12 12:38:58;;;;;;;11.13;5.45;;;37.20;20.80;;;;;;5059599;28;20060;-67
2023/09/12 12:41:27;;;;;;;17.58;6.70;;;37.40;20.60;;;;;;5082297;28;20064;-68
2023/09/12 12:43:58;;;;;;;13.48;5.50;;;37.40;19.10;;;;;;5077912;28;20087;-68
2023/09/12 12:46:25;;;;;;;13.43;5.88;;;37.00;19.90;;;;;;5080156;28;20472;-67
2023/09/12 12:48:51;;;;;;;16.10;9.23;;;37.00;19.50;;;;;;5078229;28;20036;-68
2023/09/12 12:51:25;;;;;;;11.65;5.80;;;36.80;19.40;;;;;;5067914;28;20445;-68
2023/09/12 12:54:03;;;;;;;9.45;5.70;;;36.20;20.80;;;;;;5038655;28;20038;-68